sensor_id;sensor_type;location;lat;lon;timestamp;temperature;humidity
9662;DHT22;24982;52.344;12.990;2023-05-14T00:04:58;15.90;99.90
9662;DHT22;24982;52.344;12.990;2023-05-14T00:08:00;16.00;99.90
9662;DHT22;24982;52.344;12.990;2023-05-14T00:11:02;16.10;99.90
9662;DHT22;24982;52.344;12.990;2023-05-14T00:14:04;16.10;99.90
9662;DHT22;24982;52.344;12.990;2023-05-14T00:17:07;16.10;99.90
9662;DHT22;24982;52.344;12.990;2023-05-14T00:20:10;16.20;99.90
9662;DHT22;24982;52.344;12.990;2023-05-14T00:23:12;16.10;99.90
9662;DHT22;24982;52.344;12.990;2023-05-14T00:26:15;16.10;99.90
9662;DHT22;24982;52.344;12.990;2023-05-14T00:29:19;16.10;99.90
9662;DHT22;24982;52.344;12.990;2023-05-14T00:32:22;16.00;99.90
9662;DHT22;24982;52.344;12.990;2023-05-14T00:35:24;16.00;99.90
9662;DHT22;24982;52.344;12.990;2023-05-14T00:38:26;15.90;99.90
9662;DHT22;24982;52.344;12.990;2023-05-14T00:41:28;16.00;99.90
9662;DHT22;24982;52.344;12.990;2023-05-14T00:44:30;16.00;99.90
9662;DHT22;24982;52.344;12.990;2023-05-14T00:47:33;16.10;99.90
9662;DHT22;24982;52.344;12.990;2023-05-14T00:50:36;16.20;99.90
9662;DHT22;24982;52.344;12.990;2023-05-14T00:53:38;16.20;99.90
9662;DHT22;24982;52.344;12.990;2023-05-14T00:56:41;16.20;99.90
9662;DHT22;24982;52.344;12.990;2023-05-14T00:59:43;16.20;99.90
9662;DHT22;24982;52.344;12.990;2023-05-14T01:02:46;16.10;99.90
9662;DHT22;24982;52.344;12.990;2023-05-14T01:05:55;16.10;99.90
9662;DHT22;24982;52.344;12.990;2023-05-14T01:09:07;16.00;99.90
9662;DHT22;24982;52.344;12.990;2023-05-14T01:12:18;16.10;99.90
9662;DHT22;24982;52.344;12.990;2023-05-14T01:15:23;16.10;99.90
9662;DHT22;24982;52.344;12.990;2023-05-14T01:18:29;15.90;99.90
9662;DHT22;24982;52.344;12.990;2023-05-14T01:21:36;16.00;99.90
9662;DHT22;24982;52.344;12.990;2023-05-14T01:24:40;16.10;99.90
9662;DHT22;24982;52.344;12.990;2023-05-14T01:27:47;16.00;99.90
9662;DHT22;24982;52.344;12.990;2023-05-14T01:30:52;15.80;99.90
9662;DHT22;24982;52.344;12.990;2023-05-14T01:33:58;15.80;99.90
9662;DHT22;24982;52.344;12.990;2023-05-14T02:01:29;15.50;99.90
9662;DHT22;24982;52.344;12.990;2023-05-14T02:04:31;15.50;99.90
9662;DHT22;24982;52.344;12.990;2023-05-14T02:07:34;15.50;99.90
9662;DHT22;24982;52.344;12.990;2023-05-14T02:10:36;15.50;99.90
9662;DHT22;24982;52.344;12.990;2023-05-14T02:16:40;15.20;99.90
9662;DHT22;24982;52.344;12.990;2023-05-14T02:19:42;15.20;99.90
9662;DHT22;24982;52.344;12.990;2023-05-14T02:22:46;15.20;99.90
9662;DHT22;24982;52.344;12.990;2023-05-14T02:25:48;15.40;99.90
9662;DHT22;24982;52.344;12.990;2023-05-14T02:28:50;15.40;99.90
9662;DHT22;24982;52.344;12.990;2023-05-14T02:31:52;15.30;99.90
9662;DHT22;24982;52.344;12.990;2023-05-14T02:34:54;15.20;99.90
9662;DHT22;24982;52.344;12.990;2023-05-14T02:41:02;15.10;99.90
9662;DHT22;24982;52.344;12.990;2023-05-14T02:44:04;15.20;99.90
9662;DHT22;24982;52.344;12.990;2023-05-14T02:47:06;15.20;99.90
9662;DHT22;24982;52.344;12.990;2023-05-14T02:50:08;15.20;99.90
9662;DHT22;24982;52.344;12.990;2023-05-14T02:53:12;15.20;99.90
9662;DHT22;24982;52.344;12.990;2023-05-14T02:56:14;15.10;99.90
9662;DHT22;24982;52.344;12.990;2023-05-14T02:59:16;15.20;99.90
9662;DHT22;24982;52.344;12.990;2023-05-14T03:02:18;15.20;99.90
9662;DHT22;24982;52.344;12.990;2023-05-14T03:05:20;15.30;99.90
9662;DHT22;24982;52.344;12.990;2023-05-14T03:08:24;15.30;99.90
9662;DHT22;24982;52.344;12.990;2023-05-14T03:11:26;15.20;99.90
9662;DHT22;24982;52.344;12.990;2023-05-14T03:14:28;15.20;99.90
9662;DHT22;24982;52.344;12.990;2023-05-14T03:17:30;15.20;99.90
9662;DHT22;24982;52.344;12.990;2023-05-14T03:20:32;15.10;99.90
9662;DHT22;24982;52.344;12.990;2023-05-14T03:23:35;15.10;99.90
9662;DHT22;24982;52.344;12.990;2023-05-14T03:26:37;15.10;99.90
9662;DHT22;24982;52.344;12.990;2023-05-14T03:29:39;15.10;99.90
9662;DHT22;24982;52.344;12.990;2023-05-14T03:32:41;15.10;99.90
9662;DHT22;24982;52.344;12.990;2023-05-14T03:38:47;14.80;99.90
9662;DHT22;24982;52.344;12.990;2023-05-14T03:41:49;14.90;99.90
9662;DHT22;24982;52.344;12.990;2023-05-14T03:44:51;14.80;99.90
9662;DHT22;24982;52.344;12.990;2023-05-14T03:47:53;14.80;99.90
9662;DHT22;24982;52.344;12.990;2023-05-14T03:50:55;14.60;99.90
9662;DHT22;24982;52.344;12.990;2023-05-14T03:53:59;14.60;99.90
9662;DHT22;24982;52.344;12.990;2023-05-14T03:57:01;15.10;99.90
9662;DHT22;24982;52.344;12.990;2023-05-14T04:00:04;14.80;99.90
9662;DHT22;24982;52.344;12.990;2023-05-14T04:03:17;14.70;99.90
9662;DHT22;24982;52.344;12.990;2023-05-14T04:06:19;14.90;99.90
9662;DHT22;24982;52.344;12.990;2023-05-14T04:09:22;15.00;99.90
9662;DHT22;24982;52.344;12.990;2023-05-14T04:12:25;15.00;99.90
9662;DHT22;24982;52.344;12.990;2023-05-14T04:15:27;15.00;99.90
9662;DHT22;24982;52.344;12.990;2023-05-14T04:18:29;15.00;99.90
9662;DHT22;24982;52.344;12.990;2023-05-14T04:21:34;15.00;99.90
9662;DHT22;24982;52.344;12.990;2023-05-14T04:24:37;15.10;99.90
9662;DHT22;24982;52.344;12.990;2023-05-14T04:27:40;15.20;99.90
9662;DHT22;24982;52.344;12.990;2023-05-14T04:30:42;15.20;99.90
9662;DHT22;24982;52.344;12.990;2023-05-14T04:33:45;15.30;99.90
9662;DHT22;24982;52.344;12.990;2023-05-14T04:36:47;15.40;99.90
9662;DHT22;24982;52.344;12.990;2023-05-14T04:39:50;15.40;99.90
9662;DHT22;24982;52.344;12.990;2023-05-14T04:42:52;15.50;99.90
9662;DHT22;24982;52.344;12.990;2023-05-14T04:45:54;15.40;99.90
9662;DHT22;24982;52.344;12.990;2023-05-14T04:48:56;15.50;99.90
9662;DHT22;24982;52.344;12.990;2023-05-14T04:51:58;15.50;99.90
9662;DHT22;24982;52.344;12.990;2023-05-14T04:55:01;15.50;99.90
9662;DHT22;24982;52.344;12.990;2023-05-14T04:58:03;15.50;99.90
9662;DHT22;24982;52.344;12.990;2023-05-14T05:01:06;15.50;99.90
9662;DHT22;24982;52.344;12.990;2023-05-14T05:04:07;15.60;99.90
9662;DHT22;24982;52.344;12.990;2023-05-14T05:07:09;15.60;99.90
9662;DHT22;24982;52.344;12.990;2023-05-14T05:10:13;15.60;99.90
9662;DHT22;24982;52.344;12.990;2023-05-14T05:13:15;15.60;99.90
9662;DHT22;24982;52.344;12.990;2023-05-14T05:16:17;15.60;99.90
9662;DHT22;24982;52.344;12.990;2023-05-14T05:19:19;15.60;99.90
9662;DHT22;24982;52.344;12.990;2023-05-14T05:22:21;15.60;99.90
9662;DHT22;24982;52.344;12.990;2023-05-14T05:25:25;15.60;99.90
9662;DHT22;24982;52.344;12.990;2023-05-14T05:28:27;15.50;99.90
9662;DHT22;24982;52.344;12.990;2023-05-14T05:31:29;15.60;99.90
9662;DHT22;24982;52.344;12.990;2023-05-14T05:34:32;15.70;99.90
9662;DHT22;24982;52.344;12.990;2023-05-14T05:37:34;15.70;99.90
9662;DHT22;24982;52.344;12.990;2023-05-14T05:40:40;15.70;99.90
9662;DHT22;24982;52.344;12.990;2023-05-14T05:43:42;15.70;99.90
9662;DHT22;24982;52.344;12.990;2023-05-14T05:46:44;16.10;99.90
9662;DHT22;24982;52.344;12.990;2023-05-14T05:49:46;15.70;99.90
9662;DHT22;24982;52.344;12.990;2023-05-14T05:52:48;15.70;99.90
9662;DHT22;24982;52.344;12.990;2023-05-14T05:55:51;15.70;99.90
9662;DHT22;24982;52.344;12.990;2023-05-14T05:58:53;15.80;99.90
9662;DHT22;24982;52.344;12.990;2023-05-14T06:01:56;15.90;99.90
9662;DHT22;24982;52.344;12.990;2023-05-14T06:04:58;15.90;99.90
9662;DHT22;24982;52.344;12.990;2023-05-14T06:08:00;15.90;99.90
9662;DHT22;24982;52.344;12.990;2023-05-14T06:11:04;16.00;99.90
9662;DHT22;24982;52.344;12.990;2023-05-14T06:14:06;16.10;99.90
9662;DHT22;24982;52.344;12.990;2023-05-14T06:17:08;16.00;99.90
9662;DHT22;24982;52.344;12.990;2023-05-14T06:20:10;16.10;99.90
9662;DHT22;24982;52.344;12.990;2023-05-14T06:23:12;16.10;99.90
9662;DHT22;24982;52.344;12.990;2023-05-14T06:26:16;16.10;99.90
9662;DHT22;24982;52.344;12.990;2023-05-14T06:29:18;16.10;99.90
9662;DHT22;24982;52.344;12.990;2023-05-14T06:32:20;16.30;99.90
9662;DHT22;24982;52.344;12.990;2023-05-14T06:35:22;16.30;99.90
9662;DHT22;24982;52.344;12.990;2023-05-14T06:38:24;16.30;99.90
9662;DHT22;24982;52.344;12.990;2023-05-14T06:41:28;16.40;99.90
9662;DHT22;24982;52.344;12.990;2023-05-14T06:44:30;16.60;99.90
9662;DHT22;24982;52.344;12.990;2023-05-14T06:47:32;16.60;99.90
9662;DHT22;24982;52.344;12.990;2023-05-14T06:50:34;16.60;99.90
9662;DHT22;24982;52.344;12.990;2023-05-14T06:53:36;16.70;99.90
9662;DHT22;24982;52.344;12.990;2023-05-14T06:56:39;16.70;99.90
9662;DHT22;24982;52.344;12.990;2023-05-14T06:59:41;16.70;99.90
9662;DHT22;24982;52.344;12.990;2023-05-14T07:02:43;16.70;99.90
9662;DHT22;24982;52.344;12.990;2023-05-14T07:05:45;16.80;99.90
9662;DHT22;24982;52.344;12.990;2023-05-14T07:08:47;16.80;99.90
9662;DHT22;24982;52.344;12.990;2023-05-14T07:11:51;16.80;99.90
9662;DHT22;24982;52.344;12.990;2023-05-14T07:14:53;16.80;99.90
9662;DHT22;24982;52.344;12.990;2023-05-14T07:17:56;16.90;99.90
9662;DHT22;24982;52.344;12.990;2023-05-14T07:20:58;16.90;99.90
9662;DHT22;24982;52.344;12.990;2023-05-14T07:24:00;16.90;99.90
9662;DHT22;24982;52.344;12.990;2023-05-14T07:27:04;17.00;99.90
9662;DHT22;24982;52.344;12.990;2023-05-14T07:30:08;17.00;99.90
9662;DHT22;24982;52.344;12.990;2023-05-14T07:33:10;17.00;99.90
9662;DHT22;24982;52.344;12.990;2023-05-14T07:36:12;17.00;99.90
9662;DHT22;24982;52.344;12.990;2023-05-14T07:39:14;17.10;99.90
9662;DHT22;24982;52.344;12.990;2023-05-14T07:42:18;17.10;99.90
9662;DHT22;24982;52.344;12.990;2023-05-14T07:45:20;17.20;99.90
9662;DHT22;24982;52.344;12.990;2023-05-14T07:48:22;17.20;99.90
9662;DHT22;24982;52.344;12.990;2023-05-14T07:51:24;17.30;99.90
9662;DHT22;24982;52.344;12.990;2023-05-14T07:54:27;17.30;99.90
9662;DHT22;24982;52.344;12.990;2023-05-14T07:57:31;17.50;99.90
9662;DHT22;24982;52.344;12.990;2023-05-14T08:00:33;17.70;99.90
9662;DHT22;24982;52.344;12.990;2023-05-14T08:03:35;17.70;99.90
9662;DHT22;24982;52.344;12.990;2023-05-14T08:06:40;17.80;99.90
9662;DHT22;24982;52.344;12.990;2023-05-14T08:09:42;17.80;99.90
9662;DHT22;24982;52.344;12.990;2023-05-14T08:12:48;17.90;99.90
9662;DHT22;24982;52.344;12.990;2023-05-14T08:15:50;18.20;99.90
9662;DHT22;24982;52.344;12.990;2023-05-14T08:18:53;18.30;99.90
9662;DHT22;24982;52.344;12.990;2023-05-14T08:21:56;18.40;99.90
9662;DHT22;24982;52.344;12.990;2023-05-14T08:24:57;18.40;99.90
9662;DHT22;24982;52.344;12.990;2023-05-14T08:28:02;18.50;99.90
9662;DHT22;24982;52.344;12.990;2023-05-14T08:31:04;18.70;99.40
9662;DHT22;24982;52.344;12.990;2023-05-14T08:34:06;18.70;98.90
9662;DHT22;24982;52.344;12.990;2023-05-14T08:37:08;18.90;99.60
9662;DHT22;24982;52.344;12.990;2023-05-14T08:40:11;19.40;99.40
9662;DHT22;24982;52.344;12.990;2023-05-14T08:43:15;19.20;99.00
9662;DHT22;24982;52.344;12.990;2023-05-14T08:46:22;19.30;98.10
9662;DHT22;24982;52.344;12.990;2023-05-14T08:49:34;19.30;97.60
9662;DHT22;24982;52.344;12.990;2023-05-14T08:52:42;19.40;97.90
9662;DHT22;24982;52.344;12.990;2023-05-14T08:55:45;18.90;96.40
9662;DHT22;24982;52.344;12.990;2023-05-14T08:58:49;19.70;95.00
9662;DHT22;24982;52.344;12.990;2023-05-14T09:01:52;19.80;94.90
9662;DHT22;24982;52.344;12.990;2023-05-14T09:04:56;19.90;95.50
9662;DHT22;24982;52.344;12.990;2023-05-14T09:07:59;20.00;95.50
9662;DHT22;24982;52.344;12.990;2023-05-14T09:11:03;20.10;96.30
9662;DHT22;24982;52.344;12.990;2023-05-14T09:14:10;20.40;94.90
9662;DHT22;24982;52.344;12.990;2023-05-14T09:17:12;20.40;94.60
9662;DHT22;24982;52.344;12.990;2023-05-14T09:20:14;20.60;94.20
9662;DHT22;24982;52.344;12.990;2023-05-14T09:23:16;20.80;94.40
9662;DHT22;24982;52.344;12.990;2023-05-14T09:26:21;21.10;94.10
9662;DHT22;24982;52.344;12.990;2023-05-14T09:29:26;21.40;93.10
9662;DHT22;24982;52.344;12.990;2023-05-14T09:32:34;21.70;92.50
9662;DHT22;24982;52.344;12.990;2023-05-14T09:35:37;21.80;94.00
9662;DHT22;24982;52.344;12.990;2023-05-14T09:38:41;22.00;91.90
9662;DHT22;24982;52.344;12.990;2023-05-14T09:41:42;22.20;91.80
9662;DHT22;24982;52.344;12.990;2023-05-14T09:44:46;22.30;93.50
9662;DHT22;24982;52.344;12.990;2023-05-14T09:47:48;22.60;95.80
9662;DHT22;24982;52.344;12.990;2023-05-14T09:50:50;22.60;97.80
9662;DHT22;24982;52.344;12.990;2023-05-14T09:53:52;22.80;97.50
9662;DHT22;24982;52.344;12.990;2023-05-14T09:56:55;23.00;86.50
9662;DHT22;24982;52.344;12.990;2023-05-14T09:59:59;23.10;84.60
9662;DHT22;24982;52.344;12.990;2023-05-14T10:03:04;23.30;86.00
9662;DHT22;24982;52.344;12.990;2023-05-14T10:06:07;23.30;84.90
9662;DHT22;24982;52.344;12.990;2023-05-14T10:09:12;23.40;82.90
9662;DHT22;24982;52.344;12.990;2023-05-14T10:12:15;23.60;88.60
9662;DHT22;24982;52.344;12.990;2023-05-14T10:15:25;23.40;87.70
9662;DHT22;24982;52.344;12.990;2023-05-14T10:18:42;23.30;86.70
9662;DHT22;24982;52.344;12.990;2023-05-14T10:21:48;23.10;87.80
9662;DHT22;24982;52.344;12.990;2023-05-14T10:24:54;23.10;87.10
9662;DHT22;24982;52.344;12.990;2023-05-14T10:27:57;23.20;87.30
9662;DHT22;24982;52.344;12.990;2023-05-14T10:31:01;23.50;90.00
9662;DHT22;24982;52.344;12.990;2023-05-14T10:34:03;23.50;84.30
9662;DHT22;24982;52.344;12.990;2023-05-14T10:37:06;23.70;83.20
9662;DHT22;24982;52.344;12.990;2023-05-14T10:40:09;23.80;81.30
9662;DHT22;24982;52.344;12.990;2023-05-14T10:43:11;23.70;79.70
9662;DHT22;24982;52.344;12.990;2023-05-14T10:46:14;23.90;75.30
9662;DHT22;24982;52.344;12.990;2023-05-14T10:49:17;24.10;75.00
9662;DHT22;24982;52.344;12.990;2023-05-14T10:52:19;24.20;76.90
9662;DHT22;24982;52.344;12.990;2023-05-14T10:55:22;24.40;75.30
9662;DHT22;24982;52.344;12.990;2023-05-14T10:58:24;24.60;73.00
9662;DHT22;24982;52.344;12.990;2023-05-14T11:01:27;24.40;73.00
9662;DHT22;24982;52.344;12.990;2023-05-14T11:04:30;24.10;70.70
9662;DHT22;24982;52.344;12.990;2023-05-14T11:07:34;23.60;70.90
9662;DHT22;24982;52.344;12.990;2023-05-14T11:10:38;23.30;73.70
9662;DHT22;24982;52.344;12.990;2023-05-14T11:13:40;23.00;72.90
9662;DHT22;24982;52.344;12.990;2023-05-14T11:16:44;22.80;74.30
9662;DHT22;24982;52.344;12.990;2023-05-14T11:19:47;22.70;75.90
9662;DHT22;24982;52.344;12.990;2023-05-14T11:22:49;22.40;73.30
9662;DHT22;24982;52.344;12.990;2023-05-14T11:25:52;22.30;72.20
9662;DHT22;24982;52.344;12.990;2023-05-14T11:28:54;22.10;72.70
9662;DHT22;24982;52.344;12.990;2023-05-14T11:31:58;21.90;73.00
9662;DHT22;24982;52.344;12.990;2023-05-14T11:35:00;21.80;74.60
9662;DHT22;24982;52.344;12.990;2023-05-14T11:38:02;21.60;74.30
9662;DHT22;24982;52.344;12.990;2023-05-14T11:41:04;21.40;76.30
9662;DHT22;24982;52.344;12.990;2023-05-14T11:44:06;21.70;78.20
9662;DHT22;24982;52.344;12.990;2023-05-14T11:47:10;22.10;78.30
9662;DHT22;24982;52.344;12.990;2023-05-14T11:50:12;22.20;77.40
9662;DHT22;24982;52.344;12.990;2023-05-14T11:53:17;22.60;79.50
9662;DHT22;24982;52.344;12.990;2023-05-14T11:56:20;23.10;80.00
9662;DHT22;24982;52.344;12.990;2023-05-14T11:59:24;23.20;76.40
9662;DHT22;24982;52.344;12.990;2023-05-14T12:02:27;22.90;77.80
9662;DHT22;24982;52.344;12.990;2023-05-14T12:05:29;22.70;76.00
9662;DHT22;24982;52.344;12.990;2023-05-14T12:08:32;22.40;77.80
9662;DHT22;24982;52.344;12.990;2023-05-14T12:11:35;22.10;77.60
9662;DHT22;24982;52.344;12.990;2023-05-14T12:14:39;22.00;78.90
9662;DHT22;24982;52.344;12.990;2023-05-14T12:17:45;21.80;78.00
9662;DHT22;24982;52.344;12.990;2023-05-14T12:20:49;21.70;77.60
9662;DHT22;24982;52.344;12.990;2023-05-14T12:23:56;21.60;78.30
9662;DHT22;24982;52.344;12.990;2023-05-14T12:27:00;21.60;77.30
9662;DHT22;24982;52.344;12.990;2023-05-14T12:30:04;21.50;77.70
9662;DHT22;24982;52.344;12.990;2023-05-14T12:33:08;21.50;77.10
9662;DHT22;24982;52.344;12.990;2023-05-14T12:36:10;21.40;77.60
9662;DHT22;24982;52.344;12.990;2023-05-14T12:39:12;21.40;77.50
9662;DHT22;24982;52.344;12.990;2023-05-14T12:42:14;21.40;77.70
9662;DHT22;24982;52.344;12.990;2023-05-14T12:45:16;21.50;78.90
9662;DHT22;24982;52.344;12.990;2023-05-14T12:48:20;21.80;80.60
9662;DHT22;24982;52.344;12.990;2023-05-14T12:51:22;22.10;78.30
9662;DHT22;24982;52.344;12.990;2023-05-14T12:54:24;22.10;77.20
9662;DHT22;24982;52.344;12.990;2023-05-14T12:57:26;22.00;79.10
9662;DHT22;24982;52.344;12.990;2023-05-14T13:00:29;21.80;80.10
9662;DHT22;24982;52.344;12.990;2023-05-14T13:03:33;21.70;81.00
9662;DHT22;24982;52.344;12.990;2023-05-14T13:06:35;21.60;79.30
9662;DHT22;24982;52.344;12.990;2023-05-14T13:09:37;21.60;81.00
9662;DHT22;24982;52.344;12.990;2023-05-14T13:12:39;21.70;83.30
9662;DHT22;24982;52.344;12.990;2023-05-14T13:15:41;21.90;85.00
9662;DHT22;24982;52.344;12.990;2023-05-14T13:18:47;22.30;82.20
9662;DHT22;24982;52.344;12.990;2023-05-14T13:21:49;22.40;82.80
9662;DHT22;24982;52.344;12.990;2023-05-14T13:24:51;22.30;81.90
9662;DHT22;24982;52.344;12.990;2023-05-14T13:27:53;22.20;83.10
9662;DHT22;24982;52.344;12.990;2023-05-14T13:31:04;22.10;82.70
9662;DHT22;24982;52.344;12.990;2023-05-14T13:34:08;22.00;79.70
9662;DHT22;24982;52.344;12.990;2023-05-14T13:37:10;21.80;77.40
9662;DHT22;24982;52.344;12.990;2023-05-14T13:40:12;21.70;77.20
9662;DHT22;24982;52.344;12.990;2023-05-14T13:43:14;21.70;77.50
9662;DHT22;24982;52.344;12.990;2023-05-14T13:46:16;21.60;77.80
9662;DHT22;24982;52.344;12.990;2023-05-14T13:49:19;21.50;77.20
9662;DHT22;24982;52.344;12.990;2023-05-14T13:52:22;21.50;78.50
9662;DHT22;24982;52.344;12.990;2023-05-14T13:55:24;21.30;79.20
9662;DHT22;24982;52.344;12.990;2023-05-14T13:58:26;21.40;78.00
9662;DHT22;24982;52.344;12.990;2023-05-14T14:01:28;21.20;76.90
9662;DHT22;24982;52.344;12.990;2023-05-14T14:04:32;21.10;79.30
9662;DHT22;24982;52.344;12.990;2023-05-14T14:07:34;21.10;78.30
9662;DHT22;24982;52.344;12.990;2023-05-14T14:10:36;21.10;76.80
9662;DHT22;24982;52.344;12.990;2023-05-14T14:13:40;21.00;79.70
9662;DHT22;24982;52.344;12.990;2023-05-14T14:16:42;20.90;79.90
9662;DHT22;24982;52.344;12.990;2023-05-14T14:19:46;20.90;80.80
9662;DHT22;24982;52.344;12.990;2023-05-14T14:22:48;20.80;82.70
9662;DHT22;24982;52.344;12.990;2023-05-14T14:25:50;20.80;84.40
9662;DHT22;24982;52.344;12.990;2023-05-14T14:28:51;20.80;81.60
9662;DHT22;24982;52.344;12.990;2023-05-14T14:31:53;20.80;80.40
9662;DHT22;24982;52.344;12.990;2023-05-14T14:35:00;20.80;79.00
9662;DHT22;24982;52.344;12.990;2023-05-14T14:38:07;20.80;81.20
9662;DHT22;24982;52.344;12.990;2023-05-14T14:41:09;20.80;82.10
9662;DHT22;24982;52.344;12.990;2023-05-14T14:44:11;20.70;82.20
9662;DHT22;24982;52.344;12.990;2023-05-14T14:47:13;20.60;81.00
9662;DHT22;24982;52.344;12.990;2023-05-14T14:50:16;20.60;79.20
9662;DHT22;24982;52.344;12.990;2023-05-14T14:53:18;20.50;81.50
9662;DHT22;24982;52.344;12.990;2023-05-14T14:56:20;20.40;84.90
9662;DHT22;24982;52.344;12.990;2023-05-14T14:59:23;20.40;87.60
9662;DHT22;24982;52.344;12.990;2023-05-14T15:02:27;20.40;86.00
9662;DHT22;24982;52.344;12.990;2023-05-14T15:05:31;20.30;88.10
9662;DHT22;24982;52.344;12.990;2023-05-14T15:08:33;20.30;86.70
9662;DHT22;24982;52.344;12.990;2023-05-14T15:11:36;20.30;89.00
9662;DHT22;24982;52.344;12.990;2023-05-14T15:14:38;20.20;90.10
9662;DHT22;24982;52.344;12.990;2023-05-14T15:17:40;20.30;90.90
9662;DHT22;24982;52.344;12.990;2023-05-14T15:20:43;20.30;90.00
9662;DHT22;24982;52.344;12.990;2023-05-14T15:23:45;20.30;91.10
9662;DHT22;24982;52.344;12.990;2023-05-14T15:26:47;20.30;90.10
9662;DHT22;24982;52.344;12.990;2023-05-14T15:29:49;20.30;88.40
9662;DHT22;24982;52.344;12.990;2023-05-14T15:32:51;20.30;88.50
9662;DHT22;24982;52.344;12.990;2023-05-14T15:35:54;20.30;88.20
9662;DHT22;24982;52.344;12.990;2023-05-14T15:38:59;20.30;86.70
9662;DHT22;24982;52.344;12.990;2023-05-14T15:42:01;20.30;87.60
9662;DHT22;24982;52.344;12.990;2023-05-14T15:45:04;20.30;87.90
9662;DHT22;24982;52.344;12.990;2023-05-14T15:48:06;20.40;87.70
9662;DHT22;24982;52.344;12.990;2023-05-14T15:51:12;20.30;85.60
9662;DHT22;24982;52.344;12.990;2023-05-14T15:54:14;20.30;86.40
9662;DHT22;24982;52.344;12.990;2023-05-14T15:57:17;20.30;85.00
9662;DHT22;24982;52.344;12.990;2023-05-14T16:00:19;20.30;86.90
9662;DHT22;24982;52.344;12.990;2023-05-14T16:03:21;20.40;86.60
9662;DHT22;24982;52.344;12.990;2023-05-14T16:06:27;20.40;85.50
9662;DHT22;24982;52.344;12.990;2023-05-14T16:09:29;20.40;85.00
9662;DHT22;24982;52.344;12.990;2023-05-14T16:12:31;20.40;83.90
9662;DHT22;24982;52.344;12.990;2023-05-14T16:15:34;20.40;86.10
9662;DHT22;24982;52.344;12.990;2023-05-14T16:18:36;20.40;87.10
9662;DHT22;24982;52.344;12.990;2023-05-14T16:21:40;20.40;85.50
9662;DHT22;24982;52.344;12.990;2023-05-14T16:24:42;20.30;84.90
9662;DHT22;24982;52.344;12.990;2023-05-14T16:27:44;20.30;85.60
9662;DHT22;24982;52.344;12.990;2023-05-14T16:30:46;20.30;87.10
9662;DHT22;24982;52.344;12.990;2023-05-14T16:33:48;20.30;90.00
9662;DHT22;24982;52.344;12.990;2023-05-14T16:36:54;20.20;91.10
9662;DHT22;24982;52.344;12.990;2023-05-14T16:39:58;20.20;92.00
9662;DHT22;24982;52.344;12.990;2023-05-14T16:43:00;20.10;91.20
9662;DHT22;24982;52.344;12.990;2023-05-14T16:46:02;20.10;92.60
9662;DHT22;24982;52.344;12.990;2023-05-14T16:49:04;20.10;90.70
9662;DHT22;24982;52.344;12.990;2023-05-14T16:52:07;20.20;90.20
9662;DHT22;24982;52.344;12.990;2023-05-14T16:55:10;20.00;90.00
9662;DHT22;24982;52.344;12.990;2023-05-14T16:58:12;20.00;91.70
9662;DHT22;24982;52.344;12.990;2023-05-14T17:01:14;19.90;91.30
9662;DHT22;24982;52.344;12.990;2023-05-14T17:04:16;19.90;90.60
9662;DHT22;24982;52.344;12.990;2023-05-14T17:07:19;19.90;92.40
9662;DHT22;24982;52.344;12.990;2023-05-14T17:10:22;19.90;91.90
9662;DHT22;24982;52.344;12.990;2023-05-14T17:13:25;19.80;93.10
9662;DHT22;24982;52.344;12.990;2023-05-14T17:16:27;19.70;93.40
9662;DHT22;24982;52.344;12.990;2023-05-14T17:19:30;19.60;94.30
9662;DHT22;24982;52.344;12.990;2023-05-14T17:22:33;19.60;95.40
9662;DHT22;24982;52.344;12.990;2023-05-14T17:25:35;19.50;95.20
9662;DHT22;24982;52.344;12.990;2023-05-14T17:28:37;19.40;95.70
9662;DHT22;24982;52.344;12.990;2023-05-14T17:31:46;19.40;95.20
9662;DHT22;24982;52.344;12.990;2023-05-14T17:34:51;19.30;97.00
9662;DHT22;24982;52.344;12.990;2023-05-14T17:37:55;19.20;96.90
9662;DHT22;24982;52.344;12.990;2023-05-14T17:41:06;19.20;97.40
9662;DHT22;24982;52.344;12.990;2023-05-14T17:44:08;19.10;98.20
9662;DHT22;24982;52.344;12.990;2023-05-14T17:47:11;19.00;98.70
9662;DHT22;24982;52.344;12.990;2023-05-14T17:50:13;19.00;99.10
9662;DHT22;24982;52.344;12.990;2023-05-14T17:53:16;18.90;99.90
9662;DHT22;24982;52.344;12.990;2023-05-14T17:56:18;18.90;99.90
9662;DHT22;24982;52.344;12.990;2023-05-14T17:59:21;18.80;99.90
9662;DHT22;24982;52.344;12.990;2023-05-14T18:02:23;18.80;99.90
9662;DHT22;24982;52.344;12.990;2023-05-14T18:05:26;18.70;99.90
9662;DHT22;24982;52.344;12.990;2023-05-14T18:08:30;18.70;99.90
9662;DHT22;24982;52.344;12.990;2023-05-14T18:11:40;18.60;99.90
9662;DHT22;24982;52.344;12.990;2023-05-14T18:14:42;18.50;99.90
9662;DHT22;24982;52.344;12.990;2023-05-14T18:17:44;18.50;99.90
9662;DHT22;24982;52.344;12.990;2023-05-14T18:20:46;18.40;99.90
9662;DHT22;24982;52.344;12.990;2023-05-14T18:23:50;18.40;99.90
9662;DHT22;24982;52.344;12.990;2023-05-14T18:26:52;18.30;99.90
9662;DHT22;24982;52.344;12.990;2023-05-14T18:29:54;18.20;99.90
9662;DHT22;24982;52.344;12.990;2023-05-14T18:32:59;18.10;99.90
9662;DHT22;24982;52.344;12.990;2023-05-14T18:36:01;18.10;99.90
9662;DHT22;24982;52.344;12.990;2023-05-14T18:39:05;17.90;99.90
9662;DHT22;24982;52.344;12.990;2023-05-14T18:42:07;17.80;99.90
9662;DHT22;24982;52.344;12.990;2023-05-14T18:45:19;17.90;99.90
9662;DHT22;24982;52.344;12.990;2023-05-14T18:48:40;17.90;99.90
9662;DHT22;24982;52.344;12.990;2023-05-14T18:51:57;17.90;99.90
9662;DHT22;24982;52.344;12.990;2023-05-14T18:55:11;17.90;99.90
9662;DHT22;24982;52.344;12.990;2023-05-14T18:58:19;17.90;99.90
9662;DHT22;24982;52.344;12.990;2023-05-14T19:01:21;17.80;99.90
9662;DHT22;24982;52.344;12.990;2023-05-14T19:04:31;17.80;99.90
9662;DHT22;24982;52.344;12.990;2023-05-14T19:07:35;17.80;99.90
9662;DHT22;24982;52.344;12.990;2023-05-14T19:10:41;17.80;99.90
9662;DHT22;24982;52.344;12.990;2023-05-14T19:13:58;17.70;99.90
9662;DHT22;24982;52.344;12.990;2023-05-14T19:17:00;17.60;99.90
9662;DHT22;24982;52.344;12.990;2023-05-14T19:20:06;17.60;99.90
9662;DHT22;24982;52.344;12.990;2023-05-14T19:23:08;17.50;99.90
9662;DHT22;24982;52.344;12.990;2023-05-14T19:26:14;17.50;99.90
9662;DHT22;24982;52.344;12.990;2023-05-14T19:29:19;17.50;99.90
9662;DHT22;24982;52.344;12.990;2023-05-14T19:32:23;17.40;99.90
9662;DHT22;24982;52.344;12.990;2023-05-14T19:35:25;17.30;99.90
9662;DHT22;24982;52.344;12.990;2023-05-14T19:38:28;17.30;99.90
9662;DHT22;24982;52.344;12.990;2023-05-14T19:41:34;17.30;99.90
9662;DHT22;24982;52.344;12.990;2023-05-14T19:44:36;17.20;99.90
9662;DHT22;24982;52.344;12.990;2023-05-14T19:47:38;17.20;99.90
9662;DHT22;24982;52.344;12.990;2023-05-14T19:50:41;17.10;99.90
9662;DHT22;24982;52.344;12.990;2023-05-14T19:53:43;17.10;99.90